sensor_id;sensor_type;location;lat;lon;timestamp;P1;durP1;ratioP1;P2;durP2;ratioP2
47603;SDS011;33326;51.116;6.900;2023-04-03T14:29:16;2.35;;;1.50;;
47603;SDS011;33326;51.116;6.900;2023-04-03T14:34:21;3.30;;;1.50;;
47603;SDS011;33326;51.116;6.900;2023-04-03T14:39:23;3.13;;;1.30;;
47603;SDS011;33326;51.116;6.900;2023-04-03T14:44:28;2.97;;;1.48;;
47603;SDS011;33326;51.116;6.900;2023-04-03T14:49:32;2.83;;;1.33;;
47603;SDS011;33326;51.116;6.900;2023-04-03T14:54:34;2.80;;;1.27;;
47603;SDS011;33326;51.116;6.900;2023-04-03T14:59:37;4.57;;;1.75;;
47603;SDS011;33326;51.116;6.900;2023-04-03T15:04:39;4.53;;;1.40;;
47603;SDS011;33326;51.116;6.900;2023-04-03T15:09:41;3.45;;;1.33;;
47603;SDS011;33326;51.116;6.900;2023-04-03T15:14:45;2.35;;;1.40;;
47603;SDS011;33326;51.116;6.900;2023-04-03T15:19:46;2.53;;;1.45;;
47603;SDS011;33326;51.116;6.900;2023-04-03T15:24:48;2.95;;;1.30;;
47603;SDS011;33326;51.116;6.900;2023-04-03T15:29:52;2.58;;;1.40;;
47603;SDS011;33326;51.116;6.900;2023-04-03T15:34:54;2.67;;;1.35;;
47603;SDS011;33326;51.116;6.900;2023-04-03T15:39:56;3.75;;;1.73;;
47603;SDS011;33326;51.116;6.900;2023-04-03T15:45:00;6.10;;;1.58;;
47603;SDS011;33326;51.116;6.900;2023-04-03T15:50:03;2.25;;;1.38;;
47603;SDS011;33326;51.116;6.900;2023-04-03T15:55:08;5.07;;;1.50;;
47603;SDS011;33326;51.116;6.900;2023-04-03T16:00:12;2.35;;;1.42;;
47603;SDS011;33326;51.116;6.900;2023-04-03T16:05:15;2.50;;;1.17;;
47603;SDS011;33326;51.116;6.900;2023-04-03T16:10:18;3.90;;;1.50;;
47603;SDS011;33326;51.116;6.900;2023-04-03T16:15:26;2.83;;;1.50;;
47603;SDS011;33326;51.116;6.900;2023-04-03T16:20:28;5.18;;;1.40;;
47603;SDS011;33326;51.116;6.900;2023-04-03T16:25:30;2.25;;;1.05;;
47603;SDS011;33326;51.116;6.900;2023-04-03T16:30:35;2.25;;;1.27;;
47603;SDS011;33326;51.116;6.900;2023-04-03T16:35:37;3.15;;;1.65;;
47603;SDS011;33326;51.116;6.900;2023-04-03T16:40:44;3.50;;;1.38;;
47603;SDS011;33326;51.116;6.900;2023-04-03T16:45:49;5.10;;;1.42;;
47603;SDS011;33326;51.116;6.900;2023-04-03T16:50:51;4.75;;;1.98;;
47603;SDS011;33326;51.116;6.900;2023-04-03T16:55:54;3.17;;;1.30;;
47603;SDS011;33326;51.116;6.900;2023-04-03T17:01:00;3.60;;;1.70;;
47603;SDS011;33326;51.116;6.900;2023-04-03T17:06:12;3.55;;;1.33;;
47603;SDS011;33326;51.116;6.900;2023-04-03T17:11:18;6.00;;;2.00;;
47603;SDS011;33326;51.116;6.900;2023-04-03T17:16:22;4.68;;;1.52;;
47603;SDS011;33326;51.116;6.900;2023-04-03T17:21:25;2.70;;;1.23;;
47603;SDS011;33326;51.116;6.900;2023-04-03T17:26:27;4.68;;;1.80;;
47603;SDS011;33326;51.116;6.900;2023-04-03T17:31:32;4.63;;;1.75;;
47603;SDS011;33326;51.116;6.900;2023-04-03T17:36:34;6.22;;;1.90;;
47603;SDS011;33326;51.116;6.900;2023-04-03T17:41:36;5.45;;;1.50;;
47603;SDS011;33326;51.116;6.900;2023-04-03T17:46:40;3.60;;;1.60;;
47603;SDS011;33326;51.116;6.900;2023-04-03T17:51:42;9.60;;;2.13;;
47603;SDS011;33326;51.116;6.900;2023-04-03T17:56:44;5.53;;;1.80;;
47603;SDS011;33326;51.116;6.900;2023-04-03T18:01:49;5.18;;;1.67;;
47603;SDS011;33326;51.116;6.900;2023-04-03T18:06:52;3.03;;;1.50;;
47603;SDS011;33326;51.116;6.900;2023-04-03T18:11:55;6.18;;;2.10;;
47603;SDS011;33326;51.116;6.900;2023-04-03T18:17:00;3.13;;;1.55;;
47603;SDS011;33326;51.116;6.900;2023-04-03T18:22:04;5.22;;;1.80;;
47603;SDS011;33326;51.116;6.900;2023-04-03T18:27:10;6.32;;;1.90;;
47603;SDS011;33326;51.116;6.900;2023-04-03T18:32:16;4.10;;;1.80;;
47603;SDS011;33326;51.116;6.900;2023-04-03T18:37:20;5.78;;;1.70;;
47603;SDS011;33326;51.116;6.900;2023-04-03T18:42:26;5.47;;;1.90;;
47603;SDS011;33326;51.116;6.900;2023-04-03T18:47:30;6.63;;;1.98;;
47603;SDS011;33326;51.116;6.900;2023-04-03T18:52:33;5.07;;;1.70;;
47603;SDS011;33326;51.116;6.900;2023-04-03T18:57:34;5.35;;;2.65;;
47603;SDS011;33326;51.116;6.900;2023-04-03T19:02:38;3.65;;;1.65;;
47603;SDS011;33326;51.116;6.900;2023-04-03T19:07:40;3.70;;;1.83;;
47603;SDS011;33326;51.116;6.900;2023-04-03T19:12:44;6.20;;;2.00;;
47603;SDS011;33326;51.116;6.900;2023-04-03T19:17:49;5.82;;;1.83;;
47603;SDS011;33326;51.116;6.900;2023-04-03T19:22:51;3.58;;;1.77;;
47603;SDS011;33326;51.116;6.900;2023-04-03T19:27:54;5.32;;;2.30;;
47603;SDS011;33326;51.116;6.900;2023-04-03T19:33:04;8.07;;;2.38;;
47603;SDS011;33326;51.116;6.900;2023-04-03T19:38:06;4.70;;;1.87;;
47603;SDS011;33326;51.116;6.900;2023-04-03T19:43:08;2.92;;;1.63;;
47603;SDS011;33326;51.116;6.900;2023-04-03T19:48:12;3.58;;;2.00;;
47603;SDS011;33326;51.116;6.900;2023-04-03T19:53:14;3.95;;;1.90;;
47603;SDS011;33326;51.116;6.900;2023-04-03T19:58:20;2.83;;;1.75;;
47603;SDS011;33326;51.116;6.900;2023-04-03T20:03:24;5.13;;;2.20;;
47603;SDS011;33326;51.116;6.900;2023-04-03T20:08:26;4.82;;;2.55;;
47603;SDS011;33326;51.116;6.900;2023-04-03T20:13:29;4.72;;;2.00;;
47603;SDS011;33326;51.116;6.900;2023-04-03T20:18:33;5.22;;;2.15;;
47603;SDS011;33326;51.116;6.900;2023-04-03T20:23:36;5.32;;;1.98;;
47603;SDS011;33326;51.116;6.900;2023-04-03T20:28:38;5.53;;;2.30;;
47603;SDS011;33326;51.116;6.900;2023-04-03T20:33:41;3.03;;;2.08;;
47603;SDS011;33326;51.116;6.900;2023-04-03T20:38:44;4.78;;;2.08;;
47603;SDS011;33326;51.116;6.900;2023-04-03T20:43:47;6.15;;;2.05;;
47603;SDS011;33326;51.116;6.900;2023-04-03T20:48:50;3.85;;;1.90;;
47603;SDS011;33326;51.116;6.900;2023-04-03T20:53:52;4.70;;;1.90;;
47603;SDS011;33326;51.116;6.900;2023-04-03T20:58:55;5.32;;;2.03;;
47603;SDS011;33326;51.116;6.900;2023-04-03T21:04:01;4.72;;;2.03;;
47603;SDS011;33326;51.116;6.900;2023-04-03T21:20:29;5.77;;;2.27;;
47603;SDS011;33326;51.116;6.900;2023-04-03T21:25:32;8.05;;;2.35;;
47603;SDS011;33326;51.116;6.900;2023-04-03T21:30:35;5.47;;;2.05;;
47603;SDS011;33326;51.116;6.900;2023-04-03T21:35:38;6.53;;;2.30;;
47603;SDS011;33326;51.116;6.900;2023-04-03T21:40:43;3.85;;;2.08;;
47603;SDS011;33326;51.116;6.900;2023-04-03T21:45:52;8.00;;;2.93;;
47603;SDS011;33326;51.116;6.900;2023-04-03T21:51:09;4.25;;;2.00;;
47603;SDS011;33326;51.116;6.900;2023-04-03T21:56:20;5.05;;;2.55;;
47603;SDS011;33326;51.116;6.900;2023-04-03T22:01:42;4.03;;;2.17;;
47603;SDS011;33326;51.116;6.900;2023-04-03T22:06:46;5.72;;;2.28;;
47603;SDS011;33326;51.116;6.900;2023-04-03T22:11:49;4.63;;;2.42;;
47603;SDS011;33326;51.116;6.900;2023-04-03T22:16:51;6.93;;;2.50;;
47603;SDS011;33326;51.116;6.900;2023-04-03T22:22:13;3.92;;;2.20;;
47603;SDS011;33326;51.116;6.900;2023-04-03T22:27:30;3.70;;;1.98;;
47603;SDS011;33326;51.116;6.900;2023-04-03T22:32:34;6.05;;;2.55;;
47603;SDS011;33326;51.116;6.900;2023-04-03T22:38:10;4.57;;;2.43;;
47603;SDS011;33326;51.116;6.900;2023-04-03T22:43:30;4.72;;;2.10;;
47603;SDS011;33326;51.116;6.900;2023-04-03T22:48:46;7.30;;;2.35;;
47603;SDS011;33326;51.116;6.900;2023-04-03T22:53:59;4.33;;;1.80;;
47603;SDS011;33326;51.116;6.900;2023-04-03T22:59:10;3.75;;;2.20;;
47603;SDS011;33326;51.116;6.900;2023-04-03T23:04:51;6.18;;;2.35;;
47603;SDS011;33326;51.116;6.900;2023-04-03T23:10:15;5.75;;;2.47;;
47603;SDS011;33326;51.116;6.900;2023-04-03T23:15:30;9.10;;;2.15;;
47603;SDS011;33326;51.116;6.900;2023-04-03T23:20:45;7.57;;;2.20;;
47603;SDS011;33326;51.116;6.900;2023-04-03T23:26:25;6.72;;;2.42;;
47603;SDS011;33326;51.116;6.900;2023-04-03T23:31:42;6.95;;;3.00;;
47603;SDS011;33326;51.116;6.900;2023-04-03T23:55:55;5.03;;;3.17;;
